createdAt,value
2019-03-27T00:01:18.073Z,20.10
2019-03-27T00:03:49.165Z,16.80
2019-03-27T00:06:20.224Z,21.77
2019-03-27T00:08:51.321Z,26.93
2019-03-27T00:11:22.502Z,19.87
2019-03-27T00:13:53.582Z,17.40
2019-03-27T00:16:24.720Z,17.83
2019-03-27T00:18:55.886Z,20.37
2019-03-27T00:21:27.025Z,19.43
2019-03-27T00:23:58.190Z,23.17
2019-03-27T00:26:29.339Z,20.20
2019-03-27T00:29:00.454Z,22.70
2019-03-27T00:31:31.602Z,21.03
2019-03-27T00:34:02.876Z,18.83
2019-03-27T00:36:34.005Z,23.10
2019-03-27T00:39:06.223Z,21.10
2019-03-27T00:41:37.381Z,17.60
2019-03-27T00:44:08.529Z,18.40
2019-03-27T00:46:39.692Z,18.80
2019-03-27T00:49:10.794Z,26.47
2019-03-27T00:51:41.949Z,25.43
2019-03-27T00:54:13.057Z,19.73
2019-03-27T00:56:44.135Z,20.20
2019-03-27T00:59:15.312Z,26.07
2019-03-27T01:01:46.395Z,18.33
2019-03-27T01:04:17.544Z,20.53
2019-03-27T01:06:50.919Z,21.83
2019-03-27T01:09:22.571Z,34.27
2019-03-27T01:11:53.701Z,18.53
2019-03-27T01:14:24.935Z,20.00
2019-03-27T01:16:56.011Z,25.60
2019-03-27T01:19:27.176Z,19.20
2019-03-27T01:21:58.410Z,19.87
2019-03-27T01:24:29.558Z,20.07
2019-03-27T01:27:00.667Z,24.00
2019-03-27T01:29:31.798Z,22.53
2019-03-27T01:32:03.041Z,20.37
2019-03-27T01:34:34.201Z,21.00
2019-03-27T01:37:05.282Z,22.47
2019-03-27T01:39:36.441Z,23.27
2019-03-27T01:42:07.509Z,20.50
2019-03-27T01:44:38.656Z,22.03
2019-03-27T01:47:09.732Z,20.13
2019-03-27T01:49:40.891Z,26.50
2019-03-27T01:52:12.032Z,20.20
2019-03-27T01:54:43.185Z,25.03
2019-03-27T01:57:14.364Z,26.20
2019-03-27T01:59:45.509Z,25.57
2019-03-27T02:02:16.662Z,21.20
2019-03-27T02:04:47.814Z,24.50
2019-03-27T02:07:18.960Z,26.10
2019-03-27T02:09:50.020Z,22.90
2019-03-27T02:12:21.101Z,24.33
2019-03-27T02:14:52.169Z,25.83
2019-03-27T02:17:23.409Z,23.33
2019-03-27T02:19:54.551Z,22.60
2019-03-27T02:22:25.709Z,27.37
2019-03-27T02:24:56.782Z,26.20
2019-03-27T02:27:27.882Z,25.17
2019-03-27T02:29:59.015Z,28.17
2019-03-27T02:32:30.178Z,27.40
2019-03-27T02:35:01.318Z,29.37
2019-03-27T02:37:32.566Z,23.00
2019-03-27T02:40:03.705Z,28.50
2019-03-27T02:42:34.809Z,26.17
2019-03-27T02:45:06.233Z,28.50
2019-03-27T02:47:37.397Z,22.30
2019-03-27T02:50:08.659Z,24.23
2019-03-27T02:52:39.811Z,25.63
2019-03-27T02:55:11.058Z,25.80
2019-03-27T02:57:42.218Z,29.53
2019-03-27T03:00:14.050Z,28.47
2019-03-27T03:02:46.277Z,24.00
2019-03-27T03:05:18.501Z,25.40
2019-03-27T03:07:49.679Z,27.83
2019-03-27T03:10:20.962Z,22.33
2019-03-27T03:12:52.122Z,29.40
2019-03-27T03:15:24.786Z,19.93
2019-03-27T03:17:56.021Z,22.77
2019-03-27T03:20:27.168Z,28.50
2019-03-27T03:22:58.326Z,27.70
2019-03-27T03:25:29.466Z,28.23
2019-03-27T03:28:00.620Z,25.50
2019-03-27T03:30:31.873Z,33.30
2019-03-27T03:33:03.014Z,28.57
2019-03-27T03:35:34.156Z,35.77
2019-03-27T03:38:05.315Z,30.10
2019-03-27T03:40:36.487Z,29.43
2019-03-27T03:43:07.654Z,29.83
2019-03-27T03:45:38.725Z,29.03
2019-03-27T03:48:09.888Z,22.63
2019-03-27T03:50:42.545Z,26.00
2019-03-27T03:53:15.125Z,30.43
2019-03-27T03:55:46.358Z,32.43
2019-03-27T03:58:18.261Z,31.73
2019-03-27T04:00:49.650Z,27.60
2019-03-27T04:03:22.796Z,33.30
2019-03-27T04:05:53.934Z,25.40
2019-03-27T04:08:25.102Z,31.00
2019-03-27T04:10:56.397Z,26.30
2019-03-27T04:13:27.577Z,23.77
2019-03-27T04:15:58.721Z,26.53
2019-03-27T04:18:29.911Z,27.87
2019-03-27T04:21:01.064Z,35.63
2019-03-27T04:23:32.245Z,32.67
2019-03-27T04:26:10.177Z,29.83
2019-03-27T04:28:37.351Z,32.13
2019-03-27T04:31:08.583Z,25.60
2019-03-27T04:33:39.738Z,36.77
2019-03-27T04:36:10.880Z,30.60
2019-03-27T04:38:42.056Z,37.20
2019-03-27T04:41:13.198Z,48.13
2019-03-27T04:43:44.375Z,40.47
2019-03-27T04:46:15.517Z,34.93
2019-03-27T04:48:46.697Z,33.47
2019-03-27T04:51:17.921Z,38.00
2019-03-27T04:53:49.158Z,43.13
2019-03-27T04:56:20.781Z,46.73
2019-03-27T04:58:53.024Z,42.10
2019-03-27T05:01:24.202Z,42.80
2019-03-27T05:03:55.957Z,37.43
2019-03-27T05:06:27.198Z,33.30
2019-03-27T05:08:58.341Z,35.33
2019-03-27T05:11:29.431Z,30.53
2019-03-27T05:14:00.505Z,37.53
2019-03-27T05:16:31.665Z,37.83
2019-03-27T05:19:02.833Z,30.83
2019-03-27T05:21:34.040Z,33.73
2019-03-27T05:24:05.206Z,34.67
2019-03-27T05:26:36.360Z,28.80
2019-03-27T05:29:07.513Z,32.33
2019-03-27T05:31:38.694Z,39.13
2019-03-27T05:34:09.869Z,33.90
2019-03-27T05:36:41.011Z,31.73
2019-03-27T05:39:14.541Z,35.60
2019-03-27T05:41:44.942Z,37.43
2019-03-27T05:44:16.101Z,32.93
2019-03-27T05:46:47.169Z,35.07
2019-03-27T05:49:18.333Z,44.33
2019-03-27T05:51:49.756Z,44.50
2019-03-27T05:54:20.837Z,41.67
2019-03-27T05:56:51.977Z,40.40
2019-03-27T05:59:23.069Z,45.97
2019-03-27T06:01:54.254Z,39.90
2019-03-27T06:04:26.517Z,37.23
2019-03-27T06:06:57.693Z,46.33
2019-03-27T06:09:28.954Z,42.83
2019-03-27T06:12:00.102Z,41.53
2019-03-27T06:14:31.265Z,36.40
2019-03-27T06:17:02.333Z,43.60
2019-03-27T06:19:33.417Z,40.13
2019-03-27T06:22:04.569Z,35.47
2019-03-27T06:24:35.682Z,34.20
2019-03-27T06:27:06.751Z,33.10
2019-03-27T06:29:37.911Z,45.60
2019-03-27T06:32:09.139Z,33.10
2019-03-27T06:34:40.270Z,35.57
2019-03-27T06:37:11.355Z,37.47
2019-03-27T06:39:42.519Z,33.07
2019-03-27T06:42:13.664Z,38.33
2019-03-27T06:44:44.813Z,38.10
2019-03-27T06:47:15.890Z,32.13
2019-03-27T06:49:47.119Z,37.67
2019-03-27T06:52:18.341Z,37.20
2019-03-27T06:54:49.504Z,40.70
2019-03-27T06:57:20.648Z,32.30
2019-03-27T06:59:51.809Z,38.93
2019-03-27T07:02:22.902Z,35.37
2019-03-27T07:04:54.076Z,31.03
2019-03-27T07:07:25.218Z,33.93
2019-03-27T07:09:56.324Z,33.90
2019-03-27T07:12:27.468Z,37.10
2019-03-27T07:14:58.634Z,35.30
2019-03-27T07:17:29.840Z,34.43
2019-03-27T07:20:01.028Z,40.47
2019-03-27T07:22:32.149Z,36.57
2019-03-27T07:25:03.324Z,39.77
2019-03-27T07:27:34.540Z,38.23
2019-03-27T07:30:06.804Z,37.10
2019-03-27T07:32:37.931Z,37.93
2019-03-27T07:35:10.317Z,36.90
2019-03-27T07:37:41.477Z,37.40
2019-03-27T07:40:12.690Z,42.50
2019-03-27T07:42:43.774Z,35.00
2019-03-27T07:45:15.054Z,36.60
2019-03-27T07:47:48.127Z,32.40
2019-03-27T07:50:18.972Z,36.10
2019-03-27T07:52:50.059Z,41.23
2019-03-27T07:55:21.221Z,39.17
2019-03-27T07:57:53.353Z,37.40
2019-03-27T08:00:24.685Z,52.60
2019-03-27T08:02:55.833Z,37.30
2019-03-27T08:05:27.074Z,37.43
2019-03-27T08:07:58.294Z,37.73
2019-03-27T08:10:29.466Z,39.60
2019-03-27T08:13:00.610Z,37.20
2019-03-27T08:15:31.785Z,32.03
2019-03-27T08:18:03.000Z,36.20
2019-03-27T08:20:34.249Z,35.67
2019-03-27T08:23:05.378Z,37.50
2019-03-27T08:25:36.468Z,38.93
2019-03-27T08:28:07.525Z,36.30
2019-03-27T08:30:38.708Z,31.10
2019-03-27T08:33:09.852Z,31.23
2019-03-27T08:35:41.098Z,33.80
2019-03-27T08:38:14.957Z,33.17
2019-03-27T08:40:45.174Z,33.30
2019-03-27T08:43:21.399Z,35.20
2019-03-27T08:45:49.104Z,29.57
2019-03-27T08:48:20.249Z,32.50
2019-03-27T08:51:03.228Z,24.90
2019-03-27T08:53:34.411Z,26.10
2019-03-27T08:56:05.616Z,28.43
2019-03-27T08:58:36.807Z,20.87
2019-03-27T09:01:08.109Z,26.63
2019-03-27T09:03:39.352Z,23.63
2019-03-27T09:06:10.575Z,16.80
2019-03-27T09:08:41.816Z,21.63
2019-03-27T09:11:13.040Z,21.27
2019-03-27T09:13:44.177Z,21.30
2019-03-27T09:16:15.450Z,21.73
2019-03-27T09:18:46.705Z,19.43
2019-03-27T09:21:18.842Z,22.27
2019-03-27T09:23:50.089Z,21.80
2019-03-27T09:26:21.708Z,20.50
2019-03-27T09:28:52.889Z,21.50
2019-03-27T09:31:24.107Z,22.60
2019-03-27T09:33:56.386Z,21.43
2019-03-27T09:36:27.638Z,17.70
2019-03-27T09:38:58.826Z,21.57
2019-03-27T09:41:30.139Z,17.40
2019-03-27T09:44:01.393Z,19.00
2019-03-27T09:46:32.682Z,16.13
2019-03-27T09:49:03.944Z,18.97
2019-03-27T09:51:35.156Z,19.23
2019-03-27T09:54:06.410Z,19.20
2019-03-27T09:56:37.689Z,20.20
2019-03-27T09:59:08.946Z,19.90
2019-03-27T10:01:40.173Z,23.33
2019-03-27T10:04:11.438Z,24.47
2019-03-27T10:06:42.653Z,21.23
2019-03-27T10:09:13.905Z,22.23
2019-03-27T10:11:45.114Z,20.93
2019-03-27T10:14:16.421Z,22.30
2019-03-27T10:16:47.645Z,18.97
2019-03-27T10:19:18.830Z,18.40
2019-03-27T10:21:50.120Z,18.00
2019-03-27T10:24:21.331Z,16.33
2019-03-27T10:26:52.609Z,13.63
2019-03-27T10:29:23.916Z,14.90
2019-03-27T10:31:55.202Z,12.63
2019-03-27T10:34:26.381Z,13.83
2019-03-27T10:36:58.763Z,15.20
2019-03-27T10:39:30.032Z,10.73
2019-03-27T10:42:01.248Z,9.30
2019-03-27T10:44:32.442Z,9.20
2019-03-27T10:47:03.728Z,9.70
2019-03-27T10:49:35.007Z,10.80
2019-03-27T10:52:06.273Z,11.17
2019-03-27T10:54:38.619Z,9.77
2019-03-27T10:57:09.801Z,11.27
2019-03-27T10:59:41.065Z,9.87
2019-03-27T11:02:12.269Z,13.03
2019-03-27T11:04:43.558Z,9.00
2019-03-27T11:07:14.817Z,9.90
2019-03-27T11:09:46.018Z,10.63
2019-03-27T11:12:17.272Z,7.43
2019-03-27T11:14:48.457Z,8.60
2019-03-27T11:17:19.633Z,8.90
2019-03-27T11:19:50.831Z,11.50
2019-03-27T11:22:22.102Z,8.43
2019-03-27T11:24:53.301Z,10.23
2019-03-27T11:27:24.493Z,9.70
2019-03-27T11:29:55.771Z,8.23
2019-03-27T11:32:26.936Z,10.90
2019-03-27T11:34:58.153Z,9.20
2019-03-27T11:37:29.355Z,9.73
2019-03-27T11:40:01.694Z,9.90
2019-03-27T11:42:32.949Z,9.13
2019-03-27T11:45:04.562Z,13.73
2019-03-27T11:47:35.821Z,10.97
2019-03-27T11:50:09.014Z,8.17
2019-03-27T11:52:40.260Z,7.40
2019-03-27T11:55:11.639Z,8.63
2019-03-27T11:57:42.893Z,9.00
2019-03-27T12:00:14.301Z,8.30
2019-03-27T12:02:45.493Z,14.03
2019-03-27T12:05:16.889Z,8.63
2019-03-27T12:07:48.134Z,6.83
2019-03-27T12:10:19.411Z,15.13
2019-03-27T12:12:50.678Z,10.53
2019-03-27T12:15:40.537Z,10.33
2019-03-27T12:18:13.386Z,12.13
2019-03-27T12:20:58.050Z,11.07
2019-03-27T12:23:18.884Z,10.17
2019-03-27T12:25:50.157Z,9.23
2019-03-27T12:28:21.339Z,13.27
2019-03-27T12:30:52.608Z,12.57
2019-03-27T12:33:23.862Z,11.83
2019-03-27T12:35:55.154Z,12.30
2019-03-27T12:38:27.482Z,15.50
2019-03-27T12:40:58.745Z,9.83
2019-03-27T12:43:29.955Z,10.60
2019-03-27T12:46:01.285Z,7.87
2019-03-27T12:48:32.553Z,9.90
2019-03-27T12:51:12.684Z,10.00
2019-03-27T12:53:36.804Z,10.37
2019-03-27T12:56:08.075Z,10.03
2019-03-27T12:58:39.353Z,10.60
2019-03-27T13:01:10.628Z,11.63
2019-03-27T13:03:44.312Z,9.10
2019-03-27T13:06:14.732Z,11.27
2019-03-27T13:08:49.255Z,10.73
2019-03-27T13:11:18.898Z,8.20
2019-03-27T13:13:50.140Z,7.30
2019-03-27T13:16:21.328Z,6.60
2019-03-27T13:18:52.581Z,9.13
2019-03-27T13:21:26.760Z,10.83
2019-03-27T13:23:56.798Z,7.80
2019-03-27T13:26:28.074Z,10.00
2019-03-27T13:28:59.339Z,9.97
2019-03-27T13:31:30.606Z,8.27
2019-03-27T13:34:01.861Z,14.17
2019-03-27T13:36:34.032Z,9.37
2019-03-27T13:39:07.760Z,7.50
2019-03-27T13:41:38.966Z,9.43
2019-03-27T13:44:10.158Z,11.43
2019-03-27T13:46:41.447Z,6.90
2019-03-27T13:49:12.683Z,9.13
2019-03-27T13:51:43.877Z,9.20
2019-03-27T13:54:15.154Z,6.07
2019-03-27T13:56:46.419Z,7.07
2019-03-27T13:59:17.765Z,5.63
2019-03-27T14:01:49.081Z,7.00
2019-03-27T14:04:20.340Z,7.50
2019-03-27T14:06:51.570Z,10.07
2019-03-27T14:09:22.760Z,10.10
2019-03-27T14:11:54.038Z,9.67
2019-03-27T14:14:25.286Z,8.30
2019-03-27T14:16:56.472Z,8.17
2019-03-27T14:19:27.676Z,8.00
2019-03-27T14:21:58.937Z,7.20
2019-03-27T14:24:30.169Z,7.17
2019-03-27T14:27:02.624Z,8.10
2019-03-27T14:29:33.974Z,8.93
2019-03-27T14:32:05.265Z,8.10
2019-03-27T14:34:36.459Z,6.90
2019-03-27T14:37:07.720Z,7.60
2019-03-27T14:39:38.897Z,7.43
2019-03-27T14:42:10.507Z,8.47
2019-03-27T14:44:41.805Z,8.60
2019-03-27T14:47:12.941Z,9.37
2019-03-27T14:49:44.145Z,10.70
2019-03-27T14:52:15.443Z,8.47
2019-03-27T14:54:46.691Z,6.80
2019-03-27T14:57:17.909Z,8.00
2019-03-27T14:59:49.068Z,5.63
2019-03-27T15:02:20.362Z,11.77
2019-03-27T15:04:51.953Z,8.77
2019-03-27T15:07:23.221Z,6.10
2019-03-27T15:09:54.513Z,6.97
2019-03-27T15:12:25.889Z,6.60
2019-03-27T15:14:57.060Z,11.00
2019-03-27T15:17:28.276Z,10.60
2019-03-27T15:19:59.535Z,9.57
2019-03-27T15:22:31.354Z,15.23
2019-03-27T15:25:02.669Z,22.60
2019-03-27T15:27:33.959Z,12.90
2019-03-27T15:30:06.978Z,9.33
2019-03-27T15:32:38.272Z,6.73
2019-03-27T15:35:09.647Z,5.73
2019-03-27T15:37:40.838Z,6.87
2019-03-27T15:40:12.535Z,6.33
2019-03-27T15:42:43.881Z,6.60
2019-03-27T15:45:15.429Z,6.47
2019-03-27T15:47:46.659Z,8.87
2019-03-27T15:50:17.956Z,6.80
2019-03-27T15:52:49.185Z,6.90
2019-03-27T15:55:20.457Z,6.13
2019-03-27T15:57:52.700Z,5.27
2019-03-27T16:00:24.209Z,8.10
2019-03-27T16:02:55.490Z,9.57
2019-03-27T16:05:26.753Z,7.73
2019-03-27T16:07:58.018Z,10.27
2019-03-27T16:10:29.283Z,6.47
2019-03-27T16:13:00.553Z,8.43
2019-03-27T16:15:31.809Z,6.80
2019-03-27T16:18:03.074Z,7.77
2019-03-27T16:20:34.331Z,8.70
2019-03-27T16:23:06.492Z,5.37
2019-03-27T16:25:37.742Z,6.10
2019-03-27T16:28:09.032Z,5.97
2019-03-27T16:30:40.299Z,6.33
2019-03-27T16:33:11.641Z,7.90
2019-03-27T16:35:42.884Z,5.37
2019-03-27T16:38:14.077Z,4.20
2019-03-27T16:40:47.417Z,7.13
2019-03-27T16:43:19.361Z,3.63
2019-03-27T16:45:50.630Z,3.70
2019-03-27T16:48:21.892Z,6.77
2019-03-27T16:50:53.152Z,5.53
2019-03-27T16:53:24.430Z,9.30
2019-03-27T16:55:55.609Z,5.87
2019-03-27T16:58:26.797Z,6.00
2019-03-27T17:00:58.104Z,5.10
2019-03-27T17:03:29.379Z,5.37
2019-03-27T17:06:00.656Z,6.30
2019-03-27T17:08:32.934Z,3.43
2019-03-27T17:11:04.206Z,5.10
2019-03-27T17:13:35.478Z,5.97
2019-03-27T17:16:06.657Z,5.97
2019-03-27T17:18:37.936Z,5.57
2019-03-27T17:21:09.177Z,8.83
2019-03-27T17:23:40.377Z,7.90
2019-03-27T17:26:11.540Z,6.27
2019-03-27T17:28:42.886Z,4.40
2019-03-27T17:31:14.141Z,3.83
2019-03-27T17:33:45.254Z,3.60
2019-03-27T17:36:19.882Z,4.37
2019-03-27T17:38:50.725Z,7.43
2019-03-27T17:41:21.979Z,4.27
2019-03-27T17:43:53.185Z,4.33
2019-03-27T17:46:25.506Z,4.20
2019-03-27T17:48:56.694Z,5.20
2019-03-27T17:51:27.972Z,5.87
2019-03-27T17:53:59.184Z,6.33
2019-03-27T17:56:30.356Z,5.93
2019-03-27T17:59:01.643Z,4.30
2019-03-27T18:01:32.930Z,5.80
2019-03-27T18:04:04.300Z,4.80
2019-03-27T18:06:35.494Z,6.63
2019-03-27T18:09:08.611Z,5.67
2019-03-27T18:11:39.848Z,5.20
2019-03-27T18:14:11.065Z,5.50
2019-03-27T18:16:43.414Z,5.73
2019-03-27T18:19:14.620Z,8.77
2019-03-27T18:21:45.806Z,10.93
2019-03-27T18:24:17.101Z,10.63
2019-03-27T18:26:48.340Z,14.27
2019-03-27T18:29:19.534Z,7.80
2019-03-27T18:31:50.811Z,10.10
2019-03-27T18:34:22.089Z,12.40
2019-03-27T18:36:53.330Z,8.10
2019-03-27T18:39:24.544Z,10.23
2019-03-27T18:41:55.730Z,8.40
2019-03-27T18:44:27.008Z,5.87
2019-03-27T18:46:58.250Z,8.60
2019-03-27T18:49:29.515Z,8.30
2019-03-27T18:52:00.789Z,11.20
2019-03-27T18:54:32.142Z,10.33
2019-03-27T18:57:03.389Z,8.93
2019-03-27T18:59:34.578Z,8.20
2019-03-27T19:02:05.845Z,7.10
2019-03-27T19:04:37.117Z,8.73
2019-03-27T19:07:08.368Z,9.87
2019-03-27T19:09:39.486Z,11.33
2019-03-27T19:12:10.577Z,10.93
2019-03-27T19:14:41.776Z,13.60
2019-03-27T19:17:13.030Z,13.97
2019-03-27T19:19:44.312Z,13.40
2019-03-27T19:22:15.557Z,11.30
2019-03-27T19:24:46.747Z,14.30
2019-03-27T19:27:18.038Z,11.70
2019-03-27T19:29:49.784Z,11.67
2019-03-27T19:32:20.968Z,10.57
2019-03-27T19:34:52.172Z,9.43
2019-03-27T19:37:23.421Z,8.37
2019-03-27T19:39:54.549Z,8.30
2019-03-27T19:42:25.801Z,11.30
2019-03-27T19:44:57.133Z,10.77
2019-03-27T19:47:28.393Z,10.03
2019-03-27T19:50:00.677Z,10.37
2019-03-27T19:52:33.102Z,8.73
2019-03-27T19:55:04.622Z,8.50
2019-03-27T19:57:35.910Z,10.30
2019-03-27T20:00:10.123Z,8.83
2019-03-27T20:02:41.454Z,7.40
2019-03-27T20:05:12.736Z,10.87
2019-03-27T20:07:44.049Z,5.83
2019-03-27T20:10:15.238Z,7.03
2019-03-27T20:12:46.414Z,8.43
2019-03-27T20:15:17.611Z,7.40
2019-03-27T20:17:48.929Z,6.90
2019-03-27T20:20:20.140Z,12.20
2019-03-27T20:22:51.897Z,7.50
2019-03-27T20:25:23.137Z,9.53
2019-03-27T20:27:54.397Z,7.60
2019-03-27T20:30:26.948Z,6.40
2019-03-27T20:32:58.416Z,5.50
2019-03-27T20:35:29.719Z,7.27
2019-03-27T20:38:01.047Z,6.97
2019-03-27T20:40:32.318Z,9.17
2019-03-27T20:43:03.413Z,8.87
2019-03-27T20:45:34.606Z,11.87
2019-03-27T20:48:05.798Z,14.73
2019-03-27T20:50:36.901Z,13.37
2019-03-27T20:53:08.081Z,9.23
2019-03-27T20:55:39.273Z,6.00
2019-03-27T20:58:10.457Z,11.60
2019-03-27T21:00:41.701Z,11.73
2019-03-27T21:03:12.882Z,7.67
2019-03-27T21:05:44.074Z,10.87
2019-03-27T21:08:16.314Z,10.43
2019-03-27T21:10:47.499Z,8.33
2019-03-27T21:13:18.677Z,6.40
2019-03-27T21:15:49.948Z,6.73
2019-03-27T21:18:21.195Z,7.37
2019-03-27T21:20:52.445Z,6.33
2019-03-27T21:23:24.684Z,8.20
2019-03-27T21:25:55.877Z,7.80
2019-03-27T21:28:27.117Z,8.03
2019-03-27T21:30:58.396Z,5.77
2019-03-27T21:33:29.605Z,10.00
2019-03-27T21:36:00.869Z,8.43
2019-03-27T21:38:32.051Z,5.13
2019-03-27T21:41:03.322Z,8.23
2019-03-27T21:43:34.640Z,4.97
2019-03-27T21:46:05.905Z,9.33
2019-03-27T21:48:37.098Z,8.43
2019-03-27T21:51:08.293Z,9.63
2019-03-27T21:53:39.485Z,8.93
2019-03-27T21:56:10.689Z,6.37
2019-03-27T21:58:42.928Z,9.33
2019-03-27T22:01:14.141Z,5.73
2019-03-27T22:03:45.226Z,7.17
2019-03-27T22:06:16.413Z,5.33
2019-03-27T22:08:47.659Z,8.17
2019-03-27T22:11:18.924Z,9.93
2019-03-27T22:13:50.177Z,14.10
2019-03-27T22:16:21.441Z,11.70
2019-03-27T22:18:52.621Z,10.07
2019-03-27T22:21:23.737Z,8.50
2019-03-27T22:23:54.822Z,9.33
2019-03-27T22:26:26.030Z,9.67
2019-03-27T22:28:57.194Z,14.07
2019-03-27T22:31:28.460Z,8.23
2019-03-27T22:33:59.620Z,8.70
2019-03-27T22:36:30.733Z,12.50
2019-03-27T22:39:01.924Z,10.67
2019-03-27T22:41:34.392Z,7.40
2019-03-27T22:44:05.571Z,24.10
2019-03-27T22:46:36.838Z,9.87
2019-03-27T22:49:07.944Z,10.67
2019-03-27T22:51:39.125Z,10.17
2019-03-27T22:54:10.292Z,11.60
2019-03-27T22:56:41.684Z,9.90
2019-03-27T22:59:12.933Z,7.90
2019-03-27T23:01:46.092Z,12.50
2019-03-27T23:04:17.261Z,12.03
2019-03-27T23:06:48.470Z,11.23
2019-03-27T23:09:19.716Z,10.63
2019-03-27T23:11:51.049Z,7.23
2019-03-27T23:14:22.278Z,10.40
2019-03-27T23:16:53.588Z,9.10
2019-03-27T23:19:24.691Z,14.50
2019-03-27T23:21:55.952Z,8.33
2019-03-27T23:24:27.208Z,11.73
2019-03-27T23:26:58.402Z,9.63
2019-03-27T23:29:29.563Z,9.13
2019-03-27T23:32:00.841Z,10.23
2019-03-27T23:34:32.028Z,10.03
2019-03-27T23:37:03.292Z,10.70
2019-03-27T23:39:34.496Z,7.97
2019-03-27T23:42:05.698Z,8.20
2019-03-27T23:44:36.938Z,8.07
2019-03-27T23:47:09.380Z,9.37
2019-03-27T23:49:40.540Z,9.37
2019-03-27T23:52:11.668Z,11.37
2019-03-27T23:54:42.910Z,11.10
2019-03-27T23:57:14.113Z,12.60
2019-03-27T23:59:45.289Z,10.30
